createdAt,value
2023-04-10T00:00:41.888Z,98929.88
2023-04-10T00:03:08.468Z,98924.09
2023-04-10T00:05:35.021Z,98912.03
2023-04-10T00:08:01.451Z,98925.84
2023-04-10T00:10:27.768Z,98925.47
2023-04-10T00:12:54.150Z,98922.31
2023-04-10T00:15:20.663Z,98924.28
2023-04-10T00:17:46.998Z,98925.41
2023-04-10T00:20:13.313Z,98914.03
2023-04-10T00:22:39.593Z,98914.50
2023-04-10T00:25:06.372Z,98915.78
2023-04-10T00:27:32.673Z,98914.41
2023-04-10T00:29:58.987Z,98914.56
2023-04-10T00:32:25.412Z,98910.94
2023-04-10T00:34:51.821Z,98912.09
2023-04-10T00:37:18.198Z,98906.44
2023-04-10T00:39:45.000Z,98910.22
2023-04-10T00:42:11.368Z,98905.41
2023-04-10T00:44:37.686Z,98897.13
2023-04-10T00:47:05.148Z,98894.91
2023-04-10T00:49:31.443Z,98895.53
2023-04-10T00:51:58.584Z,98892.22
2023-04-10T00:54:25.374Z,98891.41
2023-04-10T00:56:52.058Z,98891.41
2023-04-10T00:59:18.749Z,98895.69
2023-04-10T01:01:45.117Z,98899.16
2023-04-10T01:04:11.730Z,98901.09
2023-04-10T01:07:07.304Z,98899.47
2023-04-10T01:09:59.895Z,98899.91
2023-04-10T01:12:53.605Z,98902.19
2023-04-10T01:15:26.776Z,98904.41
2023-04-10T01:18:13.081Z,98903.34
2023-04-10T01:20:41.796Z,98909.22
2023-04-10T01:23:54.326Z,98902.16
2023-04-10T01:26:39.419Z,98903.13
2023-04-10T01:29:12.307Z,98894.56
2023-04-10T01:31:54.358Z,98896.66
2023-04-10T01:34:25.039Z,98889.75
2023-04-10T01:37:03.722Z,98898.47
2023-04-10T01:39:31.148Z,98894.03
2023-04-10T01:41:58.947Z,98891.53
2023-04-10T01:44:26.948Z,98886.69
2023-04-10T01:46:55.244Z,98895.72
2023-04-10T01:49:23.947Z,98897.97
2023-04-10T01:51:51.574Z,98901.44
2023-04-10T01:54:18.223Z,98901.88
2023-04-10T01:56:44.647Z,98907.59
2023-04-10T01:59:11.643Z,98901.94
2023-04-10T02:01:38.365Z,98905.84
2023-04-10T02:04:05.090Z,98894.63
2023-04-10T02:07:08.494Z,98897.25
2023-04-10T02:09:40.713Z,98901.31
2023-04-10T02:12:12.422Z,98898.28
2023-04-10T02:14:42.668Z,98903.03
2023-04-10T02:17:10.899Z,98902.31
2023-04-10T02:19:38.502Z,98895.53
2023-04-10T02:22:05.218Z,98901.09
2023-04-10T02:24:32.224Z,98898.75
2023-04-10T02:26:58.628Z,98900.03
2023-04-10T02:29:24.908Z,98894.22
2023-04-10T02:31:51.250Z,98900.59
2023-04-10T02:34:17.549Z,98906.84
2023-04-10T02:36:43.973Z,98903.38
2023-04-10T02:39:10.259Z,98909.88
2023-04-10T02:41:36.544Z,98909.34
2023-04-10T02:44:03.011Z,98910.59
2023-04-10T02:46:29.355Z,98908.94
2023-04-10T02:48:55.806Z,98907.28
2023-04-10T02:51:22.075Z,98902.03
2023-04-10T02:53:48.500Z,98904.13
2023-04-10T02:56:14.822Z,98907.34
2023-04-10T02:58:41.185Z,98899.03
2023-04-10T03:01:07.482Z,98904.41
2023-04-10T03:03:33.845Z,98904.28
2023-04-10T03:06:00.207Z,98904.84
2023-04-10T03:08:26.532Z,98904.56
2023-04-10T03:10:52.842Z,98897.78
2023-04-10T03:13:19.118Z,98907.19
2023-04-10T03:15:45.448Z,98900.56
2023-04-10T03:18:11.824Z,98903.19
2023-04-10T03:20:38.231Z,98908.16
2023-04-10T03:23:05.691Z,98910.50
2023-04-10T03:25:34.361Z,98905.09
2023-04-10T03:28:00.808Z,98908.03
2023-04-10T03:30:27.123Z,98899.59
2023-04-10T03:32:53.481Z,98904.16
2023-04-10T03:35:19.878Z,98901.81
2023-04-10T03:37:46.259Z,98901.81
2023-04-10T03:40:12.955Z,98900.03
2023-04-10T03:42:39.244Z,98895.06
2023-04-10T03:45:05.989Z,98902.53
2023-04-10T03:47:32.449Z,98894.22
2023-04-10T03:49:59.027Z,98902.94
2023-04-10T03:52:25.996Z,98893.41
2023-04-10T03:54:52.276Z,98894.38
2023-04-10T03:57:18.601Z,98897.97
2023-04-10T03:59:44.870Z,98890.91
2023-04-10T04:02:11.513Z,98891.06
2023-04-10T04:04:38.168Z,98893.97
2023-04-10T04:07:04.760Z,98890.66
2023-04-10T04:09:31.151Z,98892.59
2023-04-10T04:11:57.408Z,98884.16
2023-04-10T04:14:24.077Z,98893.31
2023-04-10T04:16:50.600Z,98887.38
2023-04-10T04:19:19.594Z,98892.47
2023-04-10T04:21:45.898Z,98891.66
2023-04-10T04:26:38.704Z,98882.38
2023-04-10T04:29:04.976Z,98889.28
2023-04-10T04:31:31.294Z,98893.84
2023-04-10T04:33:58.658Z,98884.03
2023-04-10T04:36:24.952Z,98893.44
2023-04-10T04:38:51.223Z,98899.69
2023-04-10T04:41:19.403Z,98901.63
2023-04-10T04:43:46.730Z,98906.88
2023-04-10T04:46:13.518Z,98907.84
2023-04-10T04:48:39.970Z,98908.53
2023-04-10T04:51:07.244Z,98903.28
2023-04-10T04:53:33.576Z,98908.09
2023-04-10T04:55:59.890Z,98909.63
2023-04-10T04:58:26.191Z,98924.81
2023-04-10T05:00:52.525Z,98926.88
2023-04-10T05:03:19.163Z,98922.91
2023-04-10T05:05:45.739Z,98927.88
2023-04-10T05:08:12.035Z,98923.16
2023-04-10T05:10:39.068Z,98927.72
2023-04-10T05:13:05.506Z,98936.97
2023-04-10T05:15:31.897Z,98935.59
2023-04-10T05:17:58.282Z,98940.00
2023-04-10T05:20:24.699Z,98940.94
2023-04-10T05:22:51.002Z,98929.44
2023-04-10T05:25:17.490Z,98929.25
2023-04-10T05:27:43.884Z,98924.00
2023-04-10T05:30:10.792Z,98922.16
2023-04-10T05:32:37.180Z,98917.84
2023-04-10T05:35:03.805Z,98917.41
2023-04-10T05:37:30.107Z,98920.25
2023-04-10T05:39:56.420Z,98919.25
2023-04-10T05:42:23.929Z,98913.78
2023-04-10T05:44:50.358Z,98913.72
2023-04-10T05:47:16.649Z,98911.34
2023-04-10T05:49:42.955Z,98909.31
2023-04-10T05:52:09.462Z,98913.25
2023-04-10T05:54:35.988Z,98912.84
2023-04-10T05:57:02.266Z,98913.69
2023-04-10T05:59:28.542Z,98913.97
2023-04-10T06:01:56.765Z,98916.72
2023-04-10T06:04:23.402Z,98914.03
2023-04-10T06:06:49.884Z,98914.16
2023-04-10T06:09:16.170Z,98918.69
2023-04-10T06:11:42.460Z,98908.69
2023-04-10T06:14:08.769Z,98907.28
2023-04-10T06:16:35.138Z,98909.94
2023-04-10T06:19:01.438Z,98901.88
2023-04-10T06:21:27.740Z,98907.72
2023-04-10T06:23:54.409Z,98904.94
2023-04-10T06:26:21.016Z,98900.66
2023-04-10T06:28:47.369Z,98901.34
2023-04-10T06:31:13.673Z,98894.06
2023-04-10T06:33:39.979Z,98900.38
2023-04-10T06:36:06.862Z,98907.50
2023-04-10T06:38:33.223Z,98904.00
2023-04-10T06:40:59.493Z,98904.34
2023-04-10T06:43:25.796Z,98896.41
2023-04-10T06:45:52.090Z,98892.41
2023-04-10T06:48:18.395Z,98895.19
2023-04-10T06:50:44.694Z,98893.41
2023-04-10T06:53:11.014Z,98893.66
2023-04-10T06:55:37.306Z,98888.66
2023-04-10T06:58:03.618Z,98889.94
2023-04-10T07:00:30.349Z,98897.00
2023-04-10T07:02:56.824Z,98901.56
2023-04-10T07:05:23.144Z,98900.34
2023-04-10T07:07:49.442Z,98900.59
2023-04-10T07:10:16.147Z,98898.81
2023-04-10T07:12:43.284Z,98904.03
2023-04-10T07:15:09.808Z,98894.94
2023-04-10T07:17:36.230Z,98895.78
2023-04-10T07:20:02.838Z,98900.97
2023-04-10T07:22:29.241Z,98892.84
2023-04-10T07:24:55.524Z,98891.19
2023-04-10T07:27:21.785Z,98896.69
2023-04-10T07:29:48.081Z,98885.06
2023-04-10T07:32:14.441Z,98887.25
2023-04-10T07:34:41.209Z,98881.38
2023-04-10T07:37:07.627Z,98881.75
2023-04-10T07:39:33.912Z,98876.75
2023-04-10T07:42:00.223Z,98870.53
2023-04-10T07:44:26.949Z,98863.03
2023-04-10T07:46:53.217Z,98865.84
2023-04-10T07:49:19.699Z,98864.75
2023-04-10T07:51:46.073Z,98860.38
2023-04-10T07:54:12.487Z,98860.47
2023-04-10T07:56:38.815Z,98860.22
2023-04-10T07:59:05.623Z,98856.84
2023-04-10T08:01:31.985Z,98859.19
2023-04-10T08:03:58.759Z,98845.75
2023-04-10T08:06:25.328Z,98842.50
2023-04-10T08:08:51.767Z,98845.38
2023-04-10T08:11:29.578Z,98845.50
2023-04-10T08:13:58.380Z,98846.13
2023-04-10T08:16:26.041Z,98847.63
2023-04-10T08:18:53.690Z,98848.13
2023-04-10T08:21:22.336Z,98844.22
2023-04-10T08:23:53.037Z,98850.59
2023-04-10T08:26:19.320Z,98847.16
2023-04-10T08:28:47.892Z,98848.38
2023-04-10T08:31:14.271Z,98844.50
2023-04-10T08:33:40.706Z,98843.06
2023-04-10T08:36:08.936Z,98837.31
2023-04-10T08:38:35.308Z,98834.25
2023-04-10T08:41:01.860Z,98837.72
2023-04-10T08:43:28.218Z,98838.38
2023-04-10T08:45:55.951Z,98833.44
2023-04-10T08:48:31.011Z,98822.34
2023-04-10T08:51:00.897Z,98839.81
2023-04-10T08:53:31.412Z,98831.16
2023-04-10T08:56:00.744Z,98826.00
2023-04-10T08:58:28.252Z,98824.59
2023-04-10T09:00:55.058Z,98827.84
2023-04-10T09:03:21.828Z,98829.72
2023-04-10T09:05:48.152Z,98825.38
2023-04-10T09:08:15.127Z,98832.75
2023-04-10T09:10:41.487Z,98829.84
2023-04-10T09:13:07.772Z,98825.53
2023-04-10T09:15:57.037Z,98818.47
2023-04-10T09:18:40.789Z,98816.00
2023-04-10T09:21:08.153Z,98811.41
2023-04-10T09:23:34.497Z,98797.75
2023-04-10T09:26:00.771Z,98802.66
2023-04-10T09:28:27.137Z,98804.09
2023-04-10T09:30:53.460Z,98797.72
2023-04-10T09:33:21.144Z,98802.03
2023-04-10T09:35:47.482Z,98794.38
2023-04-10T09:38:15.782Z,98790.00
2023-04-10T09:40:42.193Z,98781.91
2023-04-10T09:43:19.430Z,98784.28
2023-04-10T09:45:50.646Z,98780.06
2023-04-10T09:48:17.597Z,98779.31
2023-04-10T09:50:44.239Z,98780.06
2023-04-10T09:53:13.753Z,98778.41
2023-04-10T09:55:41.131Z,98771.38
2023-04-10T09:58:08.603Z,98762.06
2023-04-10T10:00:46.264Z,98747.19
2023-04-10T10:03:18.079Z,98740.34
2023-04-10T10:05:47.374Z,98737.13
2023-04-10T10:08:15.044Z,98735.91
2023-04-10T10:10:50.689Z,98735.81
2023-04-10T10:13:28.144Z,98738.22
2023-04-10T10:16:17.016Z,98719.44
2023-04-10T10:19:10.006Z,98718.25
2023-04-10T10:21:38.099Z,98722.03
2023-04-10T10:24:08.471Z,98721.06
2023-04-10T10:26:38.565Z,98717.34
2023-04-10T10:29:09.403Z,98712.81
2023-04-10T10:31:36.409Z,98704.63
2023-04-10T10:34:03.757Z,98690.31
2023-04-10T10:36:30.396Z,98693.50
2023-04-10T10:39:08.521Z,98697.06
2023-04-10T10:41:43.243Z,98695.91
2023-04-10T10:44:20.438Z,98686.53
2023-04-10T10:46:51.022Z,98680.25
2023-04-10T10:49:17.336Z,98687.25
2023-04-10T10:51:48.838Z,98684.00
2023-04-10T10:54:28.195Z,98683.41
2023-04-10T10:56:54.675Z,98687.22
2023-04-10T10:59:48.801Z,98668.91
2023-04-10T11:02:17.079Z,98667.63
2023-04-10T11:04:50.398Z,98654.78
2023-04-10T11:07:17.621Z,98653.06
2023-04-10T11:09:50.897Z,98653.66
2023-04-10T11:12:20.205Z,98646.66
2023-04-10T11:14:58.264Z,98641.50
2023-04-10T11:18:01.409Z,98646.44
2023-04-10T11:20:27.789Z,98636.59
2023-04-10T11:23:07.069Z,98630.41
2023-04-10T11:25:51.005Z,98624.69
2023-04-10T11:28:38.723Z,98629.25
2023-04-10T11:31:21.380Z,98627.38
2023-04-10T11:33:49.442Z,98625.16
2023-04-10T11:36:16.841Z,98625.63
2023-04-10T11:39:00.798Z,98621.50
2023-04-10T11:41:41.188Z,98623.59
2023-04-10T11:44:12.519Z,98616.97
2023-04-10T11:46:45.568Z,98618.72
2023-04-10T11:49:12.110Z,98617.75
2023-04-10T11:51:40.050Z,98614.72
2023-04-10T11:54:11.629Z,98611.31
2023-04-10T11:56:40.181Z,98597.63
2023-04-10T11:59:07.282Z,98600.69
2023-04-10T12:01:34.414Z,98601.03
2023-04-10T12:04:00.933Z,98599.06
2023-04-10T12:06:27.904Z,98596.09
2023-04-10T12:08:54.672Z,98580.22
2023-04-10T12:11:23.904Z,98585.91
2023-04-10T12:13:55.162Z,98589.53
2023-04-10T12:16:21.780Z,98576.59
2023-04-10T12:18:49.425Z,98583.69
2023-04-10T12:21:16.138Z,98586.25
2023-04-10T12:23:42.522Z,98581.94
2023-04-10T12:26:13.290Z,98577.50
2023-04-10T12:28:41.329Z,98569.28
2023-04-10T12:31:08.377Z,98568.91
2023-04-10T12:33:34.700Z,98575.53
2023-04-10T12:36:01.224Z,98563.81
2023-04-10T12:38:41.015Z,98563.72
2023-04-10T12:41:08.982Z,98563.84
2023-04-10T12:43:40.410Z,98558.69
2023-04-10T12:46:08.898Z,98550.56
2023-04-10T12:48:35.900Z,98535.97
2023-04-10T12:51:03.143Z,98528.63
2023-04-10T12:53:29.379Z,98533.03
2023-04-10T12:56:00.862Z,98524.47
2023-04-10T12:58:27.402Z,98525.13
2023-04-10T13:00:55.252Z,98523.47
2023-04-10T13:03:22.185Z,98523.97
2023-04-10T13:05:48.758Z,98526.88
2023-04-10T13:08:15.128Z,98510.41
2023-04-10T13:10:41.427Z,98503.47
2023-04-10T13:13:08.091Z,98506.56
2023-04-10T13:15:34.665Z,98503.88
2023-04-10T13:18:01.622Z,98504.22
2023-04-10T13:20:29.656Z,98488.63
2023-04-10T13:22:55.926Z,98499.16
2023-04-10T13:25:22.209Z,98490.91
2023-04-10T13:27:48.629Z,98483.13
2023-04-10T13:30:14.898Z,98475.63
2023-04-10T13:32:41.172Z,98467.72
2023-04-10T13:35:07.990Z,98461.28
2023-04-10T13:37:34.284Z,98465.91
2023-04-10T13:40:00.576Z,98458.66
2023-04-10T13:42:27.060Z,98464.28
2023-04-10T13:44:53.328Z,98456.13
2023-04-10T13:47:19.705Z,98453.31
2023-04-10T13:49:46.000Z,98445.44
2023-04-10T13:52:12.292Z,98444.38
2023-04-10T13:54:38.737Z,98443.41
2023-04-10T13:57:05.066Z,98437.47
2023-04-10T13:59:31.467Z,98430.22
2023-04-10T14:01:57.805Z,98425.31
2023-04-10T14:04:24.309Z,98420.53
2023-04-10T14:06:51.704Z,98424.09
2023-04-10T14:09:18.598Z,98413.25
2023-04-10T14:11:44.866Z,98411.25
2023-04-10T14:14:11.414Z,98401.56
2023-04-10T14:16:37.759Z,98399.47
2023-04-10T14:19:04.099Z,98391.22
2023-04-10T14:21:30.405Z,98386.09
2023-04-10T14:23:56.697Z,98394.84
2023-04-10T14:26:23.029Z,98383.19
2023-04-10T14:28:49.308Z,98384.41
2023-04-10T14:31:15.638Z,98384.28
2023-04-10T14:33:41.924Z,98385.00
2023-04-10T14:36:08.796Z,98384.75
2023-04-10T14:38:35.112Z,98373.41
2023-04-10T14:41:01.405Z,98372.59
2023-04-10T14:43:27.748Z,98367.38
2023-04-10T14:45:54.059Z,98369.97
2023-04-10T14:48:20.527Z,98367.91
2023-04-10T14:50:47.416Z,98373.13
2023-04-10T14:53:13.838Z,98367.53
2023-04-10T14:55:40.121Z,98366.56
2023-04-10T14:58:06.669Z,98361.72
2023-04-10T15:00:33.070Z,98358.56
2023-04-10T15:02:59.601Z,98354.34
2023-04-10T15:05:27.171Z,98346.25
2023-04-10T15:07:54.161Z,98341.13
2023-04-10T15:10:20.587Z,98339.88
2023-04-10T15:12:46.951Z,98338.28
2023-04-10T15:15:13.222Z,98341.38
2023-04-10T15:17:39.544Z,98342.56
2023-04-10T15:20:06.234Z,98338.03
2023-04-10T15:22:32.707Z,98343.34
2023-04-10T15:24:59.094Z,98338.78
2023-04-10T15:27:25.478Z,98333.44
2023-04-10T15:29:51.759Z,98333.84
2023-04-10T15:32:18.207Z,98320.53
2023-04-10T15:34:44.762Z,98318.06
2023-04-10T15:37:11.237Z,98314.59
2023-04-10T15:39:37.500Z,98315.13
2023-04-10T15:42:05.221Z,98318.31
2023-04-10T15:44:31.938Z,98308.78
2023-04-10T15:46:58.242Z,98313.09
2023-04-10T15:49:36.255Z,98301.59
2023-04-10T15:52:05.558Z,98303.91
2023-04-10T15:54:33.596Z,98294.13
2023-04-10T15:56:59.891Z,98299.00
2023-04-10T15:59:26.219Z,98298.78
2023-04-10T16:01:52.538Z,98297.63
2023-04-10T16:04:19.003Z,98303.25
2023-04-10T16:06:45.476Z,98295.28
2023-04-10T16:09:24.315Z,98294.25
2023-04-10T16:11:52.761Z,98302.59
2023-04-10T16:14:19.274Z,98296.94
2023-04-10T16:16:45.855Z,98297.75
2023-04-10T16:19:12.277Z,98300.56
2023-04-10T16:21:38.557Z,98292.81
2023-04-10T16:24:05.262Z,98291.66
2023-04-10T16:26:31.522Z,98297.03
2023-04-10T16:28:57.836Z,98291.66
2023-04-10T16:31:24.404Z,98287.88
2023-04-10T16:33:50.792Z,98281.19
2023-04-10T16:36:17.727Z,98280.75
2023-04-10T16:38:44.022Z,98277.47
2023-04-10T16:41:10.351Z,98279.03
2023-04-10T16:43:36.647Z,98275.41
2023-04-10T16:46:03.126Z,98263.16
2023-04-10T16:48:29.545Z,98259.03
2023-04-10T16:50:55.843Z,98251.63
2023-04-10T16:53:22.291Z,98254.53
2023-04-10T16:56:01.938Z,98246.31
2023-04-10T16:58:30.264Z,98253.66
2023-04-10T17:00:56.581Z,98256.34
2023-04-10T17:03:22.856Z,98259.97
2023-04-10T17:05:49.267Z,98245.63
2023-04-10T17:08:15.570Z,98240.44
2023-04-10T17:10:41.910Z,98229.25
2023-04-10T17:13:08.279Z,98233.41
2023-04-10T17:15:35.351Z,98226.56
2023-04-10T17:18:01.736Z,98238.44
2023-04-10T17:20:28.133Z,98235.91
2023-04-10T17:22:54.439Z,98232.97
2023-04-10T17:25:20.852Z,98221.34
2023-04-10T17:27:47.218Z,98217.53
2023-04-10T17:30:13.974Z,98220.59
2023-04-10T17:32:40.349Z,98205.94
2023-04-10T17:35:07.027Z,98207.59
2023-04-10T17:37:33.315Z,98201.22
2023-04-10T17:39:59.620Z,98195.38
2023-04-10T17:42:25.912Z,98197.88
2023-04-10T17:44:52.181Z,98193.31
2023-04-10T17:47:18.588Z,98200.91
2023-04-10T17:49:44.874Z,98183.66
2023-04-10T17:52:11.146Z,98183.41
2023-04-10T17:54:37.543Z,98188.09
2023-04-10T17:57:04.612Z,98193.28
2023-04-10T17:59:30.971Z,98197.50
2023-04-10T18:01:57.317Z,98202.50
2023-04-10T18:04:23.804Z,98202.84
2023-04-10T18:06:50.245Z,98196.53
2023-04-10T18:09:16.548Z,98197.22
2023-04-10T18:11:42.931Z,98200.00
2023-04-10T18:14:09.769Z,98191.88
2023-04-10T18:16:36.136Z,98189.50
2023-04-10T18:19:02.565Z,98189.00
2023-04-10T18:21:28.851Z,98175.50
2023-04-10T18:23:55.185Z,98190.03
2023-04-10T18:26:21.472Z,98174.88
2023-04-10T18:28:47.780Z,98171.25
2023-04-10T18:31:14.178Z,98176.72
2023-04-10T18:33:40.496Z,98171.22
2023-04-10T18:36:07.280Z,98162.00
2023-04-10T18:38:34.212Z,98160.25
2023-04-10T18:41:00.501Z,98156.03
2023-04-10T18:43:26.845Z,98155.22
2023-04-10T18:45:53.986Z,98167.41
2023-04-10T18:48:20.462Z,98159.63
2023-04-10T18:50:46.833Z,98148.97
2023-04-10T18:53:13.270Z,98146.50
2023-04-10T18:55:39.563Z,98142.88
2023-04-10T18:58:05.850Z,98145.78
2023-04-10T19:00:32.158Z,98139.63
2023-04-10T19:02:58.482Z,98135.09
2023-04-10T19:05:24.979Z,98140.09
2023-04-10T19:08:02.974Z,98131.72
2023-04-10T19:10:30.291Z,98134.59
2023-04-10T19:12:56.601Z,98130.94
2023-04-10T19:15:24.068Z,98138.81
2023-04-10T19:17:54.317Z,98139.06
2023-04-10T19:20:49.207Z,98129.41
2023-04-10T19:23:07.733Z,98126.22
2023-04-10T19:25:34.017Z,98124.19
2023-04-10T19:28:00.965Z,98122.78
2023-04-10T19:30:27.333Z,98130.44
2023-04-10T19:32:53.780Z,98131.47
2023-04-10T19:35:20.228Z,98124.75
2023-04-10T19:37:46.516Z,98141.56
2023-04-10T19:40:12.941Z,98134.22
2023-04-10T19:42:39.271Z,98135.94
2023-04-10T19:45:06.036Z,98136.97
2023-04-10T19:47:32.318Z,98136.16
2023-04-10T19:50:00.795Z,98144.00
2023-04-10T19:52:27.208Z,98146.88
2023-04-10T19:54:53.525Z,98140.81
2023-04-10T19:57:19.965Z,98127.09
2023-04-10T19:59:46.292Z,98125.47
2023-04-10T20:02:12.776Z,98125.31
2023-04-10T20:04:39.400Z,98120.97
2023-04-10T20:07:05.915Z,98131.88
2023-04-10T20:09:32.303Z,98126.75
2023-04-10T20:11:58.613Z,98129.22
2023-04-10T20:14:24.956Z,98131.88
2023-04-10T20:16:51.268Z,98109.50
2023-04-10T20:19:17.598Z,98091.25
2023-04-10T20:21:43.899Z,98076.50
2023-04-10T20:24:10.258Z,98078.56
2023-04-10T20:26:36.543Z,98100.75
2023-04-10T20:29:02.965Z,98117.78
2023-04-10T20:31:29.274Z,98110.44
2023-04-10T20:33:55.656Z,98106.97
2023-04-10T20:36:21.986Z,98112.53
2023-04-10T20:38:48.307Z,98112.91
2023-04-10T20:41:14.622Z,98092.00
2023-04-10T20:43:40.992Z,98073.97
2023-04-10T20:46:07.651Z,98080.13
2023-04-10T20:48:34.074Z,98081.63
2023-04-10T20:51:00.493Z,98076.88
2023-04-10T20:53:26.877Z,98081.41
2023-04-10T20:55:53.240Z,98072.16
2023-04-10T20:58:20.055Z,98068.91
2023-04-10T21:00:46.562Z,98063.44
2023-04-10T21:03:13.153Z,98061.78
2023-04-10T21:05:42.670Z,98072.91
2023-04-10T21:08:10.194Z,98061.41
2023-04-10T21:10:36.545Z,98054.22
2023-04-10T21:13:02.854Z,98045.03
2023-04-10T21:15:29.145Z,98035.41
2023-04-10T21:17:55.502Z,98037.50
2023-04-10T21:20:22.807Z,98041.41
2023-04-10T21:22:49.146Z,98043.25
2023-04-10T21:25:15.449Z,98038.34
2023-04-10T21:27:41.712Z,98039.38
2023-04-10T21:30:09.403Z,98039.16
2023-04-10T21:32:35.755Z,98030.34
2023-04-10T21:35:02.100Z,98027.91
2023-04-10T21:37:28.384Z,98022.78
2023-04-10T21:39:54.680Z,98025.06
2023-04-10T21:42:20.958Z,98015.00
2023-04-10T21:44:47.247Z,98004.34
2023-04-10T21:47:13.540Z,97998.63
2023-04-10T21:49:39.937Z,97996.19
2023-04-10T21:52:06.428Z,97996.41
2023-04-10T21:54:32.872Z,98006.84
2023-04-10T21:56:59.205Z,97990.50
2023-04-10T21:59:25.500Z,97995.22
2023-04-10T22:01:51.808Z,97990.94
2023-04-10T22:04:18.416Z,97992.97
2023-04-10T22:06:44.844Z,97982.72
2023-04-10T22:09:11.121Z,97980.91
2023-04-10T22:11:37.455Z,97979.06
2023-04-10T22:14:14.893Z,97980.69
2023-04-10T22:16:43.793Z,97971.88
2023-04-10T22:19:10.171Z,97980.28
2023-04-10T22:21:36.434Z,97965.09
2023-04-10T22:24:02.838Z,97965.50
2023-04-10T22:26:29.264Z,97963.66
2023-04-10T22:28:55.906Z,97961.41
2023-04-10T22:31:22.474Z,97964.06
2023-04-10T22:33:48.824Z,97957.91
2023-04-10T22:36:15.127Z,97962.84
2023-04-10T22:38:41.416Z,97957.72
2023-04-10T22:41:07.715Z,97947.66
2023-04-10T22:43:34.368Z,97937.84
2023-04-10T22:46:00.702Z,97937.22
2023-04-10T22:48:27.225Z,97929.00
2023-04-10T22:50:53.517Z,97924.50
2023-04-10T22:53:19.799Z,97919.78
2023-04-10T22:55:46.086Z,97913.41
2023-04-10T22:58:12.388Z,97912.00
2023-04-10T23:00:38.855Z,97899.69
2023-04-10T23:03:05.211Z,97899.91
2023-04-10T23:05:31.581Z,97909.75
2023-04-10T23:07:58.017Z,97907.09
2023-04-10T23:10:24.307Z,97903.59
2023-04-10T23:12:50.614Z,97895.19
2023-04-10T23:15:16.969Z,97898.03
2023-04-10T23:17:43.366Z,97900.94
2023-04-10T23:20:10.271Z,97899.50
2023-04-10T23:22:36.648Z,97889.06
2023-04-10T23:25:03.121Z,97885.13
2023-04-10T23:27:29.395Z,97885.13
2023-04-10T23:29:55.695Z,97881.44
2023-04-10T23:32:22.093Z,97882.28
2023-04-10T23:34:48.438Z,97857.44
2023-04-10T23:37:14.708Z,97850.88
2023-04-10T23:39:41.044Z,97842.06
2023-04-10T23:42:07.306Z,97826.91
2023-04-10T23:44:33.651Z,97795.72
2023-04-10T23:47:00.060Z,97783.25
2023-04-10T23:49:26.432Z,97794.97
2023-04-10T23:51:52.705Z,97790.22
2023-04-10T23:54:19.115Z,97793.94
2023-04-10T23:56:45.421Z,97789.19
2023-04-10T23:59:11.734Z,97778.31
